sensor_id;sensor_type;location;lat;lon;timestamp;temperature;humidity
26803;DHT22;14378;51.796;5.808;2023-04-24T00:05:18;10.70;99.90
26803;DHT22;14378;51.796;5.808;2023-04-24T00:07:20;10.80;99.90
26803;DHT22;14378;51.796;5.808;2023-04-24T00:09:21;10.70;99.90
26803;DHT22;14378;51.796;5.808;2023-04-24T00:11:23;10.70;99.90
26803;DHT22;14378;51.796;5.808;2023-04-24T00:13:24;10.70;99.90
26803;DHT22;14378;51.796;5.808;2023-04-24T00:15:25;10.70;99.90
26803;DHT22;14378;51.796;5.808;2023-04-24T00:17:27;10.80;99.90
26803;DHT22;14378;51.796;5.808;2023-04-24T00:19:28;10.80;99.90
26803;DHT22;14378;51.796;5.808;2023-04-24T00:21:30;10.80;99.90
26803;DHT22;14378;51.796;5.808;2023-04-24T00:23:33;10.70;99.90
26803;DHT22;14378;51.796;5.808;2023-04-24T00:25:34;10.70;99.90
26803;DHT22;14378;51.796;5.808;2023-04-24T00:27:36;10.80;99.90
26803;DHT22;14378;51.796;5.808;2023-04-24T00:29:38;10.70;99.90
26803;DHT22;14378;51.796;5.808;2023-04-24T00:31:39;10.70;99.90
26803;DHT22;14378;51.796;5.808;2023-04-24T00:33:40;10.70;99.90
26803;DHT22;14378;51.796;5.808;2023-04-24T00:35:41;10.70;99.90
26803;DHT22;14378;51.796;5.808;2023-04-24T00:37:42;10.80;99.90
26803;DHT22;14378;51.796;5.808;2023-04-24T00:39:43;10.80;99.90
26803;DHT22;14378;51.796;5.808;2023-04-24T00:41:45;10.80;99.90
26803;DHT22;14378;51.796;5.808;2023-04-24T00:43:49;10.80;99.90
26803;DHT22;14378;51.796;5.808;2023-04-24T00:45:50;10.80;99.90
26803;DHT22;14378;51.796;5.808;2023-04-24T00:47:53;10.80;99.90
26803;DHT22;14378;51.796;5.808;2023-04-24T00:49:54;10.80;99.90
26803;DHT22;14378;51.796;5.808;2023-04-24T00:51:57;10.80;99.90
26803;DHT22;14378;51.796;5.808;2023-04-24T00:54:02;10.80;99.90
26803;DHT22;14378;51.796;5.808;2023-04-24T00:56:06;10.80;99.90
26803;DHT22;14378;51.796;5.808;2023-04-24T00:58:07;10.80;99.90
26803;DHT22;14378;51.796;5.808;2023-04-24T01:00:10;10.80;99.90
26803;DHT22;14378;51.796;5.808;2023-04-24T01:02:11;10.80;99.90
26803;DHT22;14378;51.796;5.808;2023-04-24T01:04:21;10.80;99.90
26803;DHT22;14378;51.796;5.808;2023-04-24T01:06:23;10.90;99.90
26803;DHT22;14378;51.796;5.808;2023-04-24T01:08:29;10.80;99.90
26803;DHT22;14378;51.796;5.808;2023-04-24T01:10:33;10.90;99.90
26803;DHT22;14378;51.796;5.808;2023-04-24T01:12:35;10.80;99.90
26803;DHT22;14378;51.796;5.808;2023-04-24T01:14:37;10.80;99.90
26803;DHT22;14378;51.796;5.808;2023-04-24T01:16:39;10.80;99.90
26803;DHT22;14378;51.796;5.808;2023-04-24T01:18:42;10.80;99.90
26803;DHT22;14378;51.796;5.808;2023-04-24T01:20:45;10.80;99.90
26803;DHT22;14378;51.796;5.808;2023-04-24T01:22:50;10.80;99.90
26803;DHT22;14378;51.796;5.808;2023-04-24T01:24:52;10.80;99.90
26803;DHT22;14378;51.796;5.808;2023-04-24T01:26:53;10.70;99.90
26803;DHT22;14378;51.796;5.808;2023-04-24T01:28:55;10.80;99.90
26803;DHT22;14378;51.796;5.808;2023-04-24T01:30:56;10.70;99.90
26803;DHT22;14378;51.796;5.808;2023-04-24T01:32:58;10.70;99.90
26803;DHT22;14378;51.796;5.808;2023-04-24T01:35:00;10.70;99.90
26803;DHT22;14378;51.796;5.808;2023-04-24T01:37:02;10.80;99.90
26803;DHT22;14378;51.796;5.808;2023-04-24T01:39:04;10.80;99.90
26803;DHT22;14378;51.796;5.808;2023-04-24T01:41:06;10.80;99.90
26803;DHT22;14378;51.796;5.808;2023-04-24T01:43:07;10.80;99.90
26803;DHT22;14378;51.796;5.808;2023-04-24T01:45:11;10.80;99.90
26803;DHT22;14378;51.796;5.808;2023-04-24T01:47:13;10.70;99.90
26803;DHT22;14378;51.796;5.808;2023-04-24T01:49:16;10.70;99.90
26803;DHT22;14378;51.796;5.808;2023-04-24T01:51:21;10.70;99.90
26803;DHT22;14378;51.796;5.808;2023-04-24T01:53:27;10.70;99.90
26803;DHT22;14378;51.796;5.808;2023-04-24T01:55:29;10.60;99.90
26803;DHT22;14378;51.796;5.808;2023-04-24T01:57:31;10.60;99.90
26803;DHT22;14378;51.796;5.808;2023-04-24T01:59:33;10.60;99.90
26803;DHT22;14378;51.796;5.808;2023-04-24T02:01:36;10.60;99.90
26803;DHT22;14378;51.796;5.808;2023-04-24T02:03:37;10.60;99.90
26803;DHT22;14378;51.796;5.808;2023-04-24T02:05:38;10.60;99.90
26803;DHT22;14378;51.796;5.808;2023-04-24T02:07:39;10.60;99.90
26803;DHT22;14378;51.796;5.808;2023-04-24T02:09:42;10.60;99.90
26803;DHT22;14378;51.796;5.808;2023-04-24T02:11:43;10.60;99.90
26803;DHT22;14378;51.796;5.808;2023-04-24T02:13:44;10.60;99.90
26803;DHT22;14378;51.796;5.808;2023-04-24T02:15:48;10.60;99.90
26803;DHT22;14378;51.796;5.808;2023-04-24T02:17:49;10.50;99.90
26803;DHT22;14378;51.796;5.808;2023-04-24T02:19:50;10.50;99.90
26803;DHT22;14378;51.796;5.808;2023-04-24T02:21:54;10.50;99.90
26803;DHT22;14378;51.796;5.808;2023-04-24T02:23:58;10.50;99.90
26803;DHT22;14378;51.796;5.808;2023-04-24T02:25:59;10.50;99.90
26803;DHT22;14378;51.796;5.808;2023-04-24T02:28:00;10.50;99.90
26803;DHT22;14378;51.796;5.808;2023-04-24T02:30:01;10.50;99.90
26803;DHT22;14378;51.796;5.808;2023-04-24T02:32:03;10.40;99.90
26803;DHT22;14378;51.796;5.808;2023-04-24T02:34:04;10.40;99.90
26803;DHT22;14378;51.796;5.808;2023-04-24T02:36:06;10.50;99.90
26803;DHT22;14378;51.796;5.808;2023-04-24T02:38:14;10.40;99.90
26803;DHT22;14378;51.796;5.808;2023-04-24T02:40:19;10.40;99.90
26803;DHT22;14378;51.796;5.808;2023-04-24T02:42:21;10.50;99.90
26803;DHT22;14378;51.796;5.808;2023-04-24T02:44:22;10.40;99.90
26803;DHT22;14378;51.796;5.808;2023-04-24T02:46:25;10.50;99.90
26803;DHT22;14378;51.796;5.808;2023-04-24T02:48:26;10.40;99.90
26803;DHT22;14378;51.796;5.808;2023-04-24T02:50:27;10.40;99.90
26803;DHT22;14378;51.796;5.808;2023-04-24T02:52:28;10.40;99.90
26803;DHT22;14378;51.796;5.808;2023-04-24T02:54:29;10.40;99.90
26803;DHT22;14378;51.796;5.808;2023-04-24T02:56:30;10.40;99.90
26803;DHT22;14378;51.796;5.808;2023-04-24T02:58:38;10.40;99.90
26803;DHT22;14378;51.796;5.808;2023-04-24T03:00:39;10.30;99.90
26803;DHT22;14378;51.796;5.808;2023-04-24T03:02:41;10.30;99.90
26803;DHT22;14378;51.796;5.808;2023-04-24T03:04:42;10.40;99.90
26803;DHT22;14378;51.796;5.808;2023-04-24T03:06:43;10.30;99.90
26803;DHT22;14378;51.796;5.808;2023-04-24T03:08:44;10.30;99.90
26803;DHT22;14378;51.796;5.808;2023-04-24T03:10:45;10.30;99.90
26803;DHT22;14378;51.796;5.808;2023-04-24T03:12:52;10.30;99.90
26803;DHT22;14378;51.796;5.808;2023-04-24T03:14:53;10.30;99.90
26803;DHT22;14378;51.796;5.808;2023-04-24T03:16:54;10.20;99.90
26803;DHT22;14378;51.796;5.808;2023-04-24T03:18:55;10.20;99.90
26803;DHT22;14378;51.796;5.808;2023-04-24T03:21:00;10.20;99.90
26803;DHT22;14378;51.796;5.808;2023-04-24T03:23:02;10.20;99.90
26803;DHT22;14378;51.796;5.808;2023-04-24T03:25:04;10.20;99.90
26803;DHT22;14378;51.796;5.808;2023-04-24T03:27:06;10.20;99.90
26803;DHT22;14378;51.796;5.808;2023-04-24T03:29:25;10.20;99.90
26803;DHT22;14378;51.796;5.808;2023-04-24T03:31:26;10.10;99.90
26803;DHT22;14378;51.796;5.808;2023-04-24T03:33:27;10.10;99.90
26803;DHT22;14378;51.796;5.808;2023-04-24T03:35:34;10.10;99.90
26803;DHT22;14378;51.796;5.808;2023-04-24T03:37:40;10.10;99.90
26803;DHT22;14378;51.796;5.808;2023-04-24T03:40:01;10.00;99.90
26803;DHT22;14378;51.796;5.808;2023-04-24T03:42:02;10.10;99.90
26803;DHT22;14378;51.796;5.808;2023-04-24T03:44:18;10.10;99.90
26803;DHT22;14378;51.796;5.808;2023-04-24T03:46:21;10.10;99.90
26803;DHT22;14378;51.796;5.808;2023-04-24T03:48:29;10.10;99.90
26803;DHT22;14378;51.796;5.808;2023-04-24T03:50:32;10.10;99.90
26803;DHT22;14378;51.796;5.808;2023-04-24T03:52:34;10.10;99.90
26803;DHT22;14378;51.796;5.808;2023-04-24T03:54:36;10.00;99.90
26803;DHT22;14378;51.796;5.808;2023-04-24T03:56:37;10.00;99.90
26803;DHT22;14378;51.796;5.808;2023-04-24T03:58:38;10.10;99.90
26803;DHT22;14378;51.796;5.808;2023-04-24T04:00:40;10.10;99.90
26803;DHT22;14378;51.796;5.808;2023-04-24T04:03:01;10.10;99.90
26803;DHT22;14378;51.796;5.808;2023-04-24T04:05:03;10.10;99.90
26803;DHT22;14378;51.796;5.808;2023-04-24T04:07:04;10.10;99.90
26803;DHT22;14378;51.796;5.808;2023-04-24T04:09:11;10.10;99.90
26803;DHT22;14378;51.796;5.808;2023-04-24T04:11:12;10.10;99.90
26803;DHT22;14378;51.796;5.808;2023-04-24T04:13:13;10.10;99.90
26803;DHT22;14378;51.796;5.808;2023-04-24T04:15:15;10.00;99.90
26803;DHT22;14378;51.796;5.808;2023-04-24T04:17:18;10.00;99.90
26803;DHT22;14378;51.796;5.808;2023-04-24T04:19:20;10.10;99.90
26803;DHT22;14378;51.796;5.808;2023-04-24T04:21:21;10.10;99.90
26803;DHT22;14378;51.796;5.808;2023-04-24T04:23:25;10.00;99.90
26803;DHT22;14378;51.796;5.808;2023-04-24T04:25:56;10.10;99.90
26803;DHT22;14378;51.796;5.808;2023-04-24T04:28:03;10.10;99.90
26803;DHT22;14378;51.796;5.808;2023-04-24T04:30:04;10.00;99.90
26803;DHT22;14378;51.796;5.808;2023-04-24T04:32:12;10.00;99.90
26803;DHT22;14378;51.796;5.808;2023-04-24T04:34:13;10.00;99.90
26803;DHT22;14378;51.796;5.808;2023-04-24T04:36:15;10.00;99.90
26803;DHT22;14378;51.796;5.808;2023-04-24T04:38:22;10.00;99.90
26803;DHT22;14378;51.796;5.808;2023-04-24T04:40:33;10.00;99.90
26803;DHT22;14378;51.796;5.808;2023-04-24T04:42:38;10.00;99.90
26803;DHT22;14378;51.796;5.808;2023-04-24T04:44:41;10.00;99.90
26803;DHT22;14378;51.796;5.808;2023-04-24T04:46:50;10.00;99.90
26803;DHT22;14378;51.796;5.808;2023-04-24T04:49:01;10.00;99.90
26803;DHT22;14378;51.796;5.808;2023-04-24T04:51:03;10.00;99.90
26803;DHT22;14378;51.796;5.808;2023-04-24T04:53:05;10.00;99.90
26803;DHT22;14378;51.796;5.808;2023-04-24T04:55:09;10.00;99.90
26803;DHT22;14378;51.796;5.808;2023-04-24T04:57:28;9.90;99.90
26803;DHT22;14378;51.796;5.808;2023-04-24T04:59:31;9.90;99.90
26803;DHT22;14378;51.796;5.808;2023-04-24T05:01:38;9.90;99.90
26803;DHT22;14378;51.796;5.808;2023-04-24T05:03:41;9.90;99.90
26803;DHT22;14378;51.796;5.808;2023-04-24T05:05:44;9.90;99.90
26803;DHT22;14378;51.796;5.808;2023-04-24T05:07:53;9.90;99.90
26803;DHT22;14378;51.796;5.808;2023-04-24T05:09:55;9.90;99.90
26803;DHT22;14378;51.796;5.808;2023-04-24T05:11:56;9.90;99.90
26803;DHT22;14378;51.796;5.808;2023-04-24T05:13:58;9.90;99.90
26803;DHT22;14378;51.796;5.808;2023-04-24T05:16:08;9.90;99.90
26803;DHT22;14378;51.796;5.808;2023-04-24T05:18:11;9.90;99.90
26803;DHT22;14378;51.796;5.808;2023-04-24T05:20:13;9.80;99.90
26803;DHT22;14378;51.796;5.808;2023-04-24T05:22:15;9.80;99.90
26803;DHT22;14378;51.796;5.808;2023-04-24T05:24:24;9.80;99.90
26803;DHT22;14378;51.796;5.808;2023-04-24T05:26:55;9.80;99.90
26803;DHT22;14378;51.796;5.808;2023-04-24T05:29:02;9.80;99.90
26803;DHT22;14378;51.796;5.808;2023-04-24T05:31:06;9.80;99.90
26803;DHT22;14378;51.796;5.808;2023-04-24T05:33:07;9.80;99.90
26803;DHT22;14378;51.796;5.808;2023-04-24T05:35:10;9.80;99.90
26803;DHT22;14378;51.796;5.808;2023-04-24T05:37:11;9.80;99.90
26803;DHT22;14378;51.796;5.808;2023-04-24T05:39:14;9.80;99.90
26803;DHT22;14378;51.796;5.808;2023-04-24T05:41:15;9.80;99.90
26803;DHT22;14378;51.796;5.808;2023-04-24T05:43:19;9.80;99.90
26803;DHT22;14378;51.796;5.808;2023-04-24T05:45:21;9.80;99.90
26803;DHT22;14378;51.796;5.808;2023-04-24T05:47:22;9.80;99.90
26803;DHT22;14378;51.796;5.808;2023-04-24T05:49:23;9.80;99.90
26803;DHT22;14378;51.796;5.808;2023-04-24T05:51:25;9.80;99.90
26803;DHT22;14378;51.796;5.808;2023-04-24T05:53:26;9.90;99.90
26803;DHT22;14378;51.796;5.808;2023-04-24T05:55:30;9.90;99.90
26803;DHT22;14378;51.796;5.808;2023-04-24T05:57:32;9.90;99.90
26803;DHT22;14378;51.796;5.808;2023-04-24T05:59:38;9.90;99.90
26803;DHT22;14378;51.796;5.808;2023-04-24T06:01:39;9.90;99.90
26803;DHT22;14378;51.796;5.808;2023-04-24T06:03:48;9.90;99.90
26803;DHT22;14378;51.796;5.808;2023-04-24T06:05:53;9.90;99.90
26803;DHT22;14378;51.796;5.808;2023-04-24T06:07:57;9.90;99.90
26803;DHT22;14378;51.796;5.808;2023-04-24T06:10:01;9.90;99.90
26803;DHT22;14378;51.796;5.808;2023-04-24T06:12:06;9.90;99.90
26803;DHT22;14378;51.796;5.808;2023-04-24T06:14:29;9.90;99.90
26803;DHT22;14378;51.796;5.808;2023-04-24T06:16:50;9.90;99.90
26803;DHT22;14378;51.796;5.808;2023-04-24T06:19:08;9.90;99.90
26803;DHT22;14378;51.796;5.808;2023-04-24T06:21:10;9.90;99.90
26803;DHT22;14378;51.796;5.808;2023-04-24T06:23:12;9.90;99.90
26803;DHT22;14378;51.796;5.808;2023-04-24T06:25:13;9.90;99.90
26803;DHT22;14378;51.796;5.808;2023-04-24T06:27:15;9.90;99.90
26803;DHT22;14378;51.796;5.808;2023-04-24T06:29:20;9.90;99.90
26803;DHT22;14378;51.796;5.808;2023-04-24T06:31:21;9.80;99.90
26803;DHT22;14378;51.796;5.808;2023-04-24T06:33:28;9.90;99.90
26803;DHT22;14378;51.796;5.808;2023-04-24T06:35:30;9.90;99.90
26803;DHT22;14378;51.796;5.808;2023-04-24T06:37:31;9.90;99.90
26803;DHT22;14378;51.796;5.808;2023-04-24T06:39:32;10.00;99.90
26803;DHT22;14378;51.796;5.808;2023-04-24T06:41:33;10.10;99.90
26803;DHT22;14378;51.796;5.808;2023-04-24T06:43:35;10.20;99.90
26803;DHT22;14378;51.796;5.808;2023-04-24T06:45:36;10.20;99.90
26803;DHT22;14378;51.796;5.808;2023-04-24T06:47:38;10.30;99.90
26803;DHT22;14378;51.796;5.808;2023-04-24T06:49:39;10.30;99.90
26803;DHT22;14378;51.796;5.808;2023-04-24T06:51:41;10.40;99.90
26803;DHT22;14378;51.796;5.808;2023-04-24T06:53:42;10.40;99.90
26803;DHT22;14378;51.796;5.808;2023-04-24T06:55:43;10.50;99.90
26803;DHT22;14378;51.796;5.808;2023-04-24T06:57:45;10.50;99.90
26803;DHT22;14378;51.796;5.808;2023-04-24T06:59:47;10.50;99.90
26803;DHT22;14378;51.796;5.808;2023-04-24T07:01:51;10.60;99.90
26803;DHT22;14378;51.796;5.808;2023-04-24T07:03:53;10.60;99.90
26803;DHT22;14378;51.796;5.808;2023-04-24T07:05:54;10.50;99.90
26803;DHT22;14378;51.796;5.808;2023-04-24T07:07:56;10.60;99.90
26803;DHT22;14378;51.796;5.808;2023-04-24T07:09:58;10.60;99.90
26803;DHT22;14378;51.796;5.808;2023-04-24T07:11:59;10.50;99.90
26803;DHT22;14378;51.796;5.808;2023-04-24T07:14:01;10.50;99.90
26803;DHT22;14378;51.796;5.808;2023-04-24T07:16:02;10.40;99.90
26803;DHT22;14378;51.796;5.808;2023-04-24T07:18:04;10.40;99.90
26803;DHT22;14378;51.796;5.808;2023-04-24T07:20:08;10.40;99.90
26803;DHT22;14378;51.796;5.808;2023-04-24T07:22:11;10.40;99.90
26803;DHT22;14378;51.796;5.808;2023-04-24T07:24:18;10.40;99.90
26803;DHT22;14378;51.796;5.808;2023-04-24T07:26:20;10.50;99.90
26803;DHT22;14378;51.796;5.808;2023-04-24T07:28:22;10.50;99.90
26803;DHT22;14378;51.796;5.808;2023-04-24T07:30:23;10.50;99.90
26803;DHT22;14378;51.796;5.808;2023-04-24T07:32:27;10.50;99.90
26803;DHT22;14378;51.796;5.808;2023-04-24T07:34:28;10.40;99.90
26803;DHT22;14378;51.796;5.808;2023-04-24T07:36:29;10.40;99.90
26803;DHT22;14378;51.796;5.808;2023-04-24T07:38:30;10.40;99.90
26803;DHT22;14378;51.796;5.808;2023-04-24T07:40:34;10.40;99.90
26803;DHT22;14378;51.796;5.808;2023-04-24T07:42:38;10.40;99.90
26803;DHT22;14378;51.796;5.808;2023-04-24T07:44:40;10.40;99.90
26803;DHT22;14378;51.796;5.808;2023-04-24T07:46:43;10.40;99.90
26803;DHT22;14378;51.796;5.808;2023-04-24T07:48:44;10.40;99.90
26803;DHT22;14378;51.796;5.808;2023-04-24T07:50:50;10.40;99.90
26803;DHT22;14378;51.796;5.808;2023-04-24T07:52:52;10.40;99.90
26803;DHT22;14378;51.796;5.808;2023-04-24T07:54:56;10.50;99.90
26803;DHT22;14378;51.796;5.808;2023-04-24T07:57:03;10.40;99.90
26803;DHT22;14378;51.796;5.808;2023-04-24T07:59:06;10.40;99.90
26803;DHT22;14378;51.796;5.808;2023-04-24T08:01:08;10.40;99.90
26803;DHT22;14378;51.796;5.808;2023-04-24T08:03:09;10.30;99.90
26803;DHT22;14378;51.796;5.808;2023-04-24T08:05:10;10.40;99.90
26803;DHT22;14378;51.796;5.808;2023-04-24T08:07:11;10.30;99.90
26803;DHT22;14378;51.796;5.808;2023-04-24T08:09:20;10.30;99.90
26803;DHT22;14378;51.796;5.808;2023-04-24T08:11:37;10.30;99.90
26803;DHT22;14378;51.796;5.808;2023-04-24T08:13:38;10.30;99.90
26803;DHT22;14378;51.796;5.808;2023-04-24T08:15:39;10.40;99.90
26803;DHT22;14378;51.796;5.808;2023-04-24T08:17:41;10.30;99.90
26803;DHT22;14378;51.796;5.808;2023-04-24T08:19:42;10.30;99.90
26803;DHT22;14378;51.796;5.808;2023-04-24T08:21:48;10.40;99.90
26803;DHT22;14378;51.796;5.808;2023-04-24T08:23:50;10.40;99.90
26803;DHT22;14378;51.796;5.808;2023-04-24T08:25:51;10.40;99.90
26803;DHT22;14378;51.796;5.808;2023-04-24T08:27:52;10.40;99.90
26803;DHT22;14378;51.796;5.808;2023-04-24T08:29:57;10.40;99.90
26803;DHT22;14378;51.796;5.808;2023-04-24T08:31:59;10.40;99.90
26803;DHT22;14378;51.796;5.808;2023-04-24T08:34:01;10.40;99.90
26803;DHT22;14378;51.796;5.808;2023-04-24T08:36:07;10.40;99.90
26803;DHT22;14378;51.796;5.808;2023-04-24T08:38:09;10.40;99.90
26803;DHT22;14378;51.796;5.808;2023-04-24T08:40:16;10.40;99.90
26803;DHT22;14378;51.796;5.808;2023-04-24T08:42:21;10.40;99.90
26803;DHT22;14378;51.796;5.808;2023-04-24T08:44:23;10.40;99.90
26803;DHT22;14378;51.796;5.808;2023-04-24T08:46:26;10.40;99.90
26803;DHT22;14378;51.796;5.808;2023-04-24T08:48:27;10.40;99.90
26803;DHT22;14378;51.796;5.808;2023-04-24T08:50:30;10.50;99.90
26803;DHT22;14378;51.796;5.808;2023-04-24T08:52:35;10.50;99.90
26803;DHT22;14378;51.796;5.808;2023-04-24T08:54:39;10.50;99.90
26803;DHT22;14378;51.796;5.808;2023-04-24T08:56:44;10.50;99.90
26803;DHT22;14378;51.796;5.808;2023-04-24T08:58:45;10.50;99.90
26803;DHT22;14378;51.796;5.808;2023-04-24T09:00:59;10.40;99.90
26803;DHT22;14378;51.796;5.808;2023-04-24T09:03:07;10.40;99.90
26803;DHT22;14378;51.796;5.808;2023-04-24T09:05:13;10.40;99.90
26803;DHT22;14378;51.796;5.808;2023-04-24T09:07:27;10.40;99.90
26803;DHT22;14378;51.796;5.808;2023-04-24T09:09:32;10.40;99.90
26803;DHT22;14378;51.796;5.808;2023-04-24T09:11:36;10.40;99.90
26803;DHT22;14378;51.796;5.808;2023-04-24T09:13:42;10.40;99.90
26803;DHT22;14378;51.796;5.808;2023-04-24T09:15:51;10.30;99.90
26803;DHT22;14378;51.796;5.808;2023-04-24T09:17:54;10.40;99.90
26803;DHT22;14378;51.796;5.808;2023-04-24T09:20:00;10.40;99.90
26803;DHT22;14378;51.796;5.808;2023-04-24T09:22:05;10.40;99.90
26803;DHT22;14378;51.796;5.808;2023-04-24T09:24:16;10.40;99.90
26803;DHT22;14378;51.796;5.808;2023-04-24T09:26:25;10.50;99.90
26803;DHT22;14378;51.796;5.808;2023-04-24T09:28:38;10.50;99.90
26803;DHT22;14378;51.796;5.808;2023-04-24T09:30:40;10.60;99.90
26803;DHT22;14378;51.796;5.808;2023-04-24T09:32:42;10.60;99.90
26803;DHT22;14378;51.796;5.808;2023-04-24T09:34:43;10.60;99.90
26803;DHT22;14378;51.796;5.808;2023-04-24T09:36:50;10.60;99.90
26803;DHT22;14378;51.796;5.808;2023-04-24T09:38:57;10.60;99.90
26803;DHT22;14378;51.796;5.808;2023-04-24T09:41:03;10.70;99.90
26803;DHT22;14378;51.796;5.808;2023-04-24T09:43:10;10.70;99.90
26803;DHT22;14378;51.796;5.808;2023-04-24T09:45:12;10.80;99.90
26803;DHT22;14378;51.796;5.808;2023-04-24T09:47:13;10.80;99.90
26803;DHT22;14378;51.796;5.808;2023-04-24T09:49:25;10.80;99.90
26803;DHT22;14378;51.796;5.808;2023-04-24T09:51:37;10.80;99.90
26803;DHT22;14378;51.796;5.808;2023-04-24T09:53:39;10.80;99.90
26803;DHT22;14378;51.796;5.808;2023-04-24T09:55:47;10.90;99.90
26803;DHT22;14378;51.796;5.808;2023-04-24T09:57:56;10.90;99.90
26803;DHT22;14378;51.796;5.808;2023-04-24T09:59:57;10.90;99.90
26803;DHT22;14378;51.796;5.808;2023-04-24T10:01:59;11.00;99.90
26803;DHT22;14378;51.796;5.808;2023-04-24T10:04:02;11.00;99.90
26803;DHT22;14378;51.796;5.808;2023-04-24T10:06:04;11.00;99.90
26803;DHT22;14378;51.796;5.808;2023-04-24T10:08:11;11.10;99.90
26803;DHT22;14378;51.796;5.808;2023-04-24T10:10:12;11.20;99.90
26803;DHT22;14378;51.796;5.808;2023-04-24T10:12:13;11.40;99.90
26803;DHT22;14378;51.796;5.808;2023-04-24T10:14:18;11.60;99.90
26803;DHT22;14378;51.796;5.808;2023-04-24T10:16:22;11.70;99.90
26803;DHT22;14378;51.796;5.808;2023-04-24T10:18:24;11.80;99.90
26803;DHT22;14378;51.796;5.808;2023-04-24T10:20:29;11.80;99.90
26803;DHT22;14378;51.796;5.808;2023-04-24T10:22:33;11.90;99.90
26803;DHT22;14378;51.796;5.808;2023-04-24T10:24:35;12.00;99.90
26803;DHT22;14378;51.796;5.808;2023-04-24T10:26:39;12.10;99.90
26803;DHT22;14378;51.796;5.808;2023-04-24T10:28:41;12.20;99.90
26803;DHT22;14378;51.796;5.808;2023-04-24T10:30:43;12.30;99.90
26803;DHT22;14378;51.796;5.808;2023-04-24T10:32:44;12.30;99.90
26803;DHT22;14378;51.796;5.808;2023-04-24T10:34:45;12.20;99.90
26803;DHT22;14378;51.796;5.808;2023-04-24T10:36:51;12.10;99.90
26803;DHT22;14378;51.796;5.808;2023-04-24T10:38:56;12.00;99.90
26803;DHT22;14378;51.796;5.808;2023-04-24T10:41:09;12.00;99.90
26803;DHT22;14378;51.796;5.808;2023-04-24T10:43:17;11.90;99.90
26803;DHT22;14378;51.796;5.808;2023-04-24T10:45:21;11.90;99.90
26803;DHT22;14378;51.796;5.808;2023-04-24T10:47:23;11.90;99.90
26803;DHT22;14378;51.796;5.808;2023-04-24T10:49:31;11.90;99.90
26803;DHT22;14378;51.796;5.808;2023-04-24T10:51:52;11.90;99.90
26803;DHT22;14378;51.796;5.808;2023-04-24T10:53:57;11.80;99.90
26803;DHT22;14378;51.796;5.808;2023-04-24T10:56:03;11.80;99.90
26803;DHT22;14378;51.796;5.808;2023-04-24T10:58:05;11.70;99.90
26803;DHT22;14378;51.796;5.808;2023-04-24T11:00:16;11.70;99.90
26803;DHT22;14378;51.796;5.808;2023-04-24T11:02:19;11.70;99.90
26803;DHT22;14378;51.796;5.808;2023-04-24T11:04:36;11.70;99.90
26803;DHT22;14378;51.796;5.808;2023-04-24T11:06:37;11.70;99.90
26803;DHT22;14378;51.796;5.808;2023-04-24T11:08:45;11.70;99.90
26803;DHT22;14378;51.796;5.808;2023-04-24T11:11:00;11.70;99.90
26803;DHT22;14378;51.796;5.808;2023-04-24T11:13:02;11.70;99.90
26803;DHT22;14378;51.796;5.808;2023-04-24T11:15:04;11.80;99.90
26803;DHT22;14378;51.796;5.808;2023-04-24T11:17:32;11.80;99.90
26803;DHT22;14378;51.796;5.808;2023-04-24T11:19:34;11.90;99.90
26803;DHT22;14378;51.796;5.808;2023-04-24T11:21:44;12.10;99.90
26803;DHT22;14378;51.796;5.808;2023-04-24T11:23:50;12.20;99.90
26803;DHT22;14378;51.796;5.808;2023-04-24T11:26:14;12.30;99.90
26803;DHT22;14378;51.796;5.808;2023-04-24T11:28:24;12.40;99.90
26803;DHT22;14378;51.796;5.808;2023-04-24T11:30:30;12.40;99.90
26803;DHT22;14378;51.796;5.808;2023-04-24T11:34:39;12.30;99.90
26803;DHT22;14378;51.796;5.808;2023-04-24T11:36:46;12.20;99.90
26803;DHT22;14378;51.796;5.808;2023-04-24T11:38:49;12.20;99.90
26803;DHT22;14378;51.796;5.808;2023-04-24T11:40:54;12.20;99.90
26803;DHT22;14378;51.796;5.808;2023-04-24T11:42:56;12.20;99.90
26803;DHT22;14378;51.796;5.808;2023-04-24T11:45:00;12.20;99.90
26803;DHT22;14378;51.796;5.808;2023-04-24T11:47:05;12.10;99.90
26803;DHT22;14378;51.796;5.808;2023-04-24T11:49:07;12.10;99.90
26803;DHT22;14378;51.796;5.808;2023-04-24T11:51:08;12.10;99.90
26803;DHT22;14378;51.796;5.808;2023-04-24T11:53:10;12.00;99.90
26803;DHT22;14378;51.796;5.808;2023-04-24T11:57:22;12.10;99.90
26803;DHT22;14378;51.796;5.808;2023-04-24T11:59:25;12.00;99.90
26803;DHT22;14378;51.796;5.808;2023-04-24T12:01:26;12.00;99.90
26803;DHT22;14378;51.796;5.808;2023-04-24T12:05:29;12.00;99.90
26803;DHT22;14378;51.796;5.808;2023-04-24T12:07:40;12.00;99.90
26803;DHT22;14378;51.796;5.808;2023-04-24T12:09:48;12.00;99.90
26803;DHT22;14378;51.796;5.808;2023-04-24T12:11:57;12.00;99.90
26803;DHT22;14378;51.796;5.808;2023-04-24T12:14:10;12.00;99.90
26803;DHT22;14378;51.796;5.808;2023-04-24T12:16:11;12.00;99.90
26803;DHT22;14378;51.796;5.808;2023-04-24T12:18:13;12.10;99.90
26803;DHT22;14378;51.796;5.808;2023-04-24T12:20:15;12.10;99.90
26803;DHT22;14378;51.796;5.808;2023-04-24T12:22:17;12.10;99.90
26803;DHT22;14378;51.796;5.808;2023-04-24T12:24:18;12.10;99.90
26803;DHT22;14378;51.796;5.808;2023-04-24T12:26:20;12.00;99.90
26803;DHT22;14378;51.796;5.808;2023-04-24T12:28:22;12.00;99.90
26803;DHT22;14378;51.796;5.808;2023-04-24T12:30:28;12.00;99.90
26803;DHT22;14378;51.796;5.808;2023-04-24T12:32:30;11.90;99.90
26803;DHT22;14378;51.796;5.808;2023-04-24T12:34:31;11.90;99.90
26803;DHT22;14378;51.796;5.808;2023-04-24T12:36:35;11.90;99.90
26803;DHT22;14378;51.796;5.808;2023-04-24T12:38:36;11.90;99.90
26803;DHT22;14378;51.796;5.808;2023-04-24T12:40:42;11.90;99.90
26803;DHT22;14378;51.796;5.808;2023-04-24T12:42:50;11.90;99.90
26803;DHT22;14378;51.796;5.808;2023-04-24T12:44:56;11.80;99.90
26803;DHT22;14378;51.796;5.808;2023-04-24T12:47:00;11.90;99.90
26803;DHT22;14378;51.796;5.808;2023-04-24T12:49:04;11.90;99.90
26803;DHT22;14378;51.796;5.808;2023-04-24T12:51:05;12.00;99.90
26803;DHT22;14378;51.796;5.808;2023-04-24T12:53:09;12.10;99.90
26803;DHT22;14378;51.796;5.808;2023-04-24T12:55:11;12.10;99.90
26803;DHT22;14378;51.796;5.808;2023-04-24T12:57:13;12.20;99.90
26803;DHT22;14378;51.796;5.808;2023-04-24T12:59:14;12.20;99.90
26803;DHT22;14378;51.796;5.808;2023-04-24T13:01:19;12.20;99.90
26803;DHT22;14378;51.796;5.808;2023-04-24T13:03:20;12.30;99.90
26803;DHT22;14378;51.796;5.808;2023-04-24T13:05:21;12.30;99.90
26803;DHT22;14378;51.796;5.808;2023-04-24T13:07:22;12.40;99.90
26803;DHT22;14378;51.796;5.808;2023-04-24T13:09:23;12.50;99.90
26803;DHT22;14378;51.796;5.808;2023-04-24T13:11:26;12.60;99.90
26803;DHT22;14378;51.796;5.808;2023-04-24T13:13:28;12.60;99.90
26803;DHT22;14378;51.796;5.808;2023-04-24T13:15:31;12.60;99.90